Time;durP1;ratioP1;P1;durP2;ratioP2;P2;SDS_P1;SDS_P2;PMS_P1;PMS_P2;Temp;Humidity;BMP_temperature;BMP_pressure;BME280_temperature;BME280_humidity;BME280_pressure;Samples;Min_cycle;Max_cycle;Signal;HPM_P1;HPM_P2
2022/10/18 00:00:05;;;;;;;;;;;;;;;13.87;83.61;98982.72;5072470;28;19920;-57
2022/10/18 00:02:37;;;;;;;;;;;;;;;13.84;83.50;98977.84;5072300;28;20015;-57
2022/10/18 00:05:05;;;;;;;;;;;;;;;13.83;83.73;98977.06;5059596;28;19920;-57
2022/10/18 00:07:35;;;;;;;;;;;;;;;13.85;83.49;98971.31;5067766;28;20270;-57
2022/10/18 00:10:05;;;;;;;;;;;;;;;13.85;83.19;98971.31;5073660;28;19920;-57
2022/10/18 00:12:33;;;;;;;;;;;;;;;13.77;83.75;98980.22;5073062;28;19920;-58
2022/10/18 00:15:01;;;;;;;;;;;;;;;13.72;83.98;98969.38;5072450;28;19927;-57
2022/10/18 00:17:29;;;;;;;;;;;;;;;13.76;83.86;98973.13;5071500;28;20223;-57
2022/10/18 00:19:58;;;;;;;;;;;;;;;13.76;83.82;98981.31;5052968;28;19931;-57
2022/10/18 00:22:26;;;;;;;;;;;;;;;13.72;83.98;98977.59;5088383;28;19952;-57
2022/10/18 00:24:54;;;;;;;;;;;;;;;13.74;83.89;98980.81;5073169;28;19924;-57
2022/10/18 00:30:40;;;;;;;;;;;;;;;13.70;84.09;98997.00;5077301;28;19983;-57
2022/10/18 00:33:08;;;;;;;;;;;;;;;13.67;84.04;98996.81;5064566;28;19924;-57
2022/10/18 00:35:36;;;;;;;;;;;;;;;13.62;84.30;98990.31;5071492;28;20293;-57
2022/10/18 00:38:04;;;;;;;;;;;;;;;13.61;84.46;98986.00;5071137;28;20392;-57
2022/10/18 00:40:33;;;;;;;;;;;;;;;13.60;84.40;98984.38;5064692;28;19921;-57
2022/10/18 00:43:02;;;;;;;;;;;;;;;13.62;84.03;98987.59;5054559;28;19929;-57
2022/10/18 00:45:30;;;;;;;;;;;;;;;13.63;83.75;98985.66;5046921;28;20340;-57
2022/10/18 00:47:59;;;;;;;;;;;;;;;13.62;83.73;98978.59;5073038;28;19928;-57
2022/10/18 00:50:28;;;;;;;;;;;;;;;13.46;84.25;98982.75;5072588;28;19920;-57
2022/10/18 00:52:57;;;;;;;;;;;;;;;13.47;84.19;98973.44;5075294;28;19931;-57
2022/10/18 00:55:25;;;;;;;;;;;;;;;13.45;84.21;98972.97;5071585;28;20281;-61
2022/10/18 00:57:53;;;;;;;;;;;;;;;13.48;84.09;98972.38;5072406;28;19927;-57
2022/10/18 01:00:27;;;;;;;;;;;;;;;13.45;84.02;98973.75;5050046;28;20015;-57
2022/10/18 01:02:55;;;;;;;;;;;;;;;13.44;83.95;98974.88;5077488;28;20396;-57
2022/10/18 01:05:22;;;;;;;;;;;;;;;13.35;84.54;98977.50;5076541;28;19924;-57
2022/10/18 01:08:03;;;;;;;;;;;;;;;13.35;84.43;98977.50;5071975;28;19928;-57
2022/10/18 01:10:31;;;;;;;;;;;;;;;13.38;84.43;98970.66;5071657;28;19926;-57
2022/10/18 01:13:03;;;;;;;;;;;;;;;13.42;84.01;98979.00;5072285;28;19920;-57
2022/10/18 01:15:34;;;;;;;;;;;;;;;13.43;84.17;98970.53;5064563;28;19985;-57
2022/10/18 01:18:04;;;;;;;;;;;;;;;13.35;84.11;98971.22;5060977;28;19928;-57
2022/10/18 01:20:39;;;;;;;;;;;;;;;13.35;84.33;98960.31;5051898;28;19943;-57
2022/10/18 01:23:08;;;;;;;;;;;;;;;13.28;84.57;98959.94;5052444;28;19944;-57
2022/10/18 01:25:38;;;;;;;;;;;;;;;13.22;84.86;98966.59;5047216;28;20392;-57
2022/10/18 01:31:02;;;;;;;;;;;;;;;13.28;84.65;98957.19;5047474;28;20028;-57
2022/10/18 01:33:54;;;;;;;;;;;;;;;13.19;84.53;98956.25;5079226;28;19927;-57
2022/10/18 01:36:23;;;;;;;;;;;;;;;13.12;84.98;98956.66;5070396;28;19934;-57
2022/10/18 01:38:56;;;;;;;;;;;;;;;13.08;84.79;98959.16;5071503;28;19955;-57
2022/10/18 01:41:24;;;;;;;;;;;;;;;13.10;84.78;98958.84;5068956;28;20033;-57
2022/10/18 01:43:53;;;;;;;;;;;;;;;13.09;84.94;98952.59;5053331;28;19928;-57
2022/10/18 01:46:23;;;;;;;;;;;;;;;13.02;85.14;98956.84;5064809;28;19921;-57
2022/10/18 01:48:55;;;;;;;;;;;;;;;13.04;84.79;98960.06;5078920;28;19958;-57
2022/10/18 01:51:24;;;;;;;;;;;;;;;12.95;85.15;98957.25;5069430;28;20336;-57
2022/10/18 01:53:54;;;;;;;;;;;;;;;12.99;84.85;98955.50;5070419;28;20393;-57
2022/10/18 01:56:24;;;;;;;;;;;;;;;12.96;84.87;98953.41;5067163;28;19920;-56
2022/10/18 01:58:54;;;;;;;;;;;;;;;12.93;84.59;98954.00;5070817;28;19920;-57
2022/10/18 02:01:31;;;;;;;;;;;;;;;12.81;84.85;98950.94;5061528;28;19928;-57
2022/10/18 02:04:01;;;;;;;;;;;;;;;12.89;84.57;98954.88;5074443;28;20434;-57
2022/10/18 02:06:31;;;;;;;;;;;;;;;12.95;84.54;98945.53;5066336;28;20369;-57
2022/10/18 02:08:59;;;;;;;;;;;;;;;12.90;84.28;98942.91;5071980;28;19928;-57
2022/10/18 02:11:27;;;;;;;;;;;;;;;12.89;84.02;98944.81;5050879;28;19920;-57
2022/10/18 02:13:56;;;;;;;;;;;;;;;12.93;83.96;98947.72;5067155;28;19928;-59
2022/10/18 02:16:26;;;;;;;;;;;;;;;12.91;83.71;98948.03;5034707;28;19921;-57
2022/10/18 02:18:55;;;;;;;;;;;;;;;12.94;83.57;98952.06;5059401;28;19920;-57
2022/10/18 02:21:23;;;;;;;;;;;;;;;12.93;83.24;98953.19;5050385;28;19924;-57
2022/10/18 02:23:56;;;;;;;;;;;;;;;12.85;83.67;98950.06;5051050;28;19921;-56
2022/10/18 02:26:26;;;;;;;;;;;;;;;12.83;83.65;98954.19;5050942;28;19921;-57
2022/10/18 02:28:54;;;;;;;;;;;;;;;12.77;83.48;98953.47;5051084;28;20446;-57
2022/10/18 02:31:25;;;;;;;;;;;;;;;12.79;83.83;98962.16;5043984;28;19927;-57
2022/10/18 02:33:56;;;;;;;;;;;;;;;12.76;83.78;98948.31;5068033;28;19927;-57
2022/10/18 02:36:24;;;;;;;;;;;;;;;12.70;83.93;98953.06;5070406;28;19990;-57
2022/10/18 02:38:57;;;;;;;;;;;;;;;12.74;83.91;98956.00;5070545;28;19920;-57
2022/10/18 02:41:25;;;;;;;;;;;;;;;12.68;84.13;98957.19;5070534;28;19966;-57
2022/10/18 02:43:52;;;;;;;;;;;;;;;12.69;84.23;98959.63;5074278;28;20277;-57
2022/10/18 02:46:20;;;;;;;;;;;;;;;12.70;83.94;98954.97;5042894;28;19920;-57
2022/10/18 02:48:48;;;;;;;;;;;;;;;12.68;84.05;98959.94;5071281;28;19954;-57
2022/10/18 02:51:17;;;;;;;;;;;;;;;12.68;84.26;98959.94;5071014;28;20412;-57
2022/10/18 02:53:45;;;;;;;;;;;;;;;12.66;84.20;98962.13;5075960;28;19927;-57
2022/10/18 02:56:13;;;;;;;;;;;;;;;12.71;84.02;98951.94;5086861;28;19924;-57
2022/10/18 02:58:41;;;;;;;;;;;;;;;12.72;84.09;98950.81;5069767;28;20447;-57
2022/10/18 03:01:09;;;;;;;;;;;;;;;12.73;84.19;98957.91;5078572;28;19932;-57
2022/10/18 03:03:37;;;;;;;;;;;;;;;12.70;84.06;98954.97;5061319;28;19920;-57
2022/10/18 03:06:07;;;;;;;;;;;;;;;12.66;84.04;98956.66;5074116;28;19920;-58
2022/10/18 03:08:37;;;;;;;;;;;;;;;12.65;84.00;98955.06;5072637;28;19927;-57
2022/10/18 03:11:05;;;;;;;;;;;;;;;12.65;84.23;98960.50;5074592;28;19951;-57
2022/10/18 03:13:33;;;;;;;;;;;;;;;12.67;84.22;98961.00;5073042;28;19920;-57
2022/10/18 03:16:01;;;;;;;;;;;;;;;12.69;84.20;98958.81;5069580;28;19924;-57
2022/10/18 03:18:29;;;;;;;;;;;;;;;12.69;84.15;98956.09;5075054;28;20320;-57
2022/10/18 03:20:57;;;;;;;;;;;;;;;12.69;84.21;98951.44;5072245;28;20293;-57
2022/10/18 03:23:24;;;;;;;;;;;;;;;12.70;83.91;98944.06;5073874;28;19928;-57
2022/10/18 03:25:54;;;;;;;;;;;;;;;12.70;83.70;98949.53;5073496;28;19928;-57
2022/10/18 03:28:21;;;;;;;;;;;;;;;12.57;83.77;98934.75;5072303;28;19937;-58
2022/10/18 03:30:49;;;;;;;;;;;;;;;12.58;83.80;98939.09;5069205;28;19928;-58
2022/10/18 03:33:17;;;;;;;;;;;;;;;12.55;83.77;98942.41;5077193;28;19927;-57
2022/10/18 03:35:49;;;;;;;;;;;;;;;12.58;83.90;98941.81;5051135;28;20015;-57
2022/10/18 03:38:17;;;;;;;;;;;;;;;12.57;83.86;98940.22;5073757;28;20011;-58
2022/10/18 03:40:45;;;;;;;;;;;;;;;12.58;83.48;98937.19;5076329;28;19968;-58
2022/10/18 03:43:15;;;;;;;;;;;;;;;12.55;83.92;98940.50;5073075;28;20022;-58
2022/10/18 03:45:44;;;;;;;;;;;;;;;12.49;84.06;98936.25;5077611;28;20019;-57
2022/10/18 03:48:14;;;;;;;;;;;;;;;12.54;83.85;98936.16;5080742;28;19920;-57
2022/10/18 03:50:44;;;;;;;;;;;;;;;12.53;83.96;98928.28;5070920;28;19920;-58
2022/10/18 03:53:12;;;;;;;;;;;;;;;12.56;83.59;98939.38;5084115;28;19933;-58
2022/10/18 03:55:40;;;;;;;;;;;;;;;12.55;83.68;98932.31;5073035;28;19920;-58
2022/10/18 03:58:08;;;;;;;;;;;;;;;12.60;83.58;98928.69;5089669;28;19928;-58
2022/10/18 04:00:37;;;;;;;;;;;;;;;12.47;84.24;98929.47;5066502;28;19933;-57
2022/10/18 04:03:05;;;;;;;;;;;;;;;12.38;84.23;98923.09;5079665;28;19920;-57
2022/10/18 04:05:33;;;;;;;;;;;;;;;12.37;84.43;98927.72;5073153;28;19925;-57
2022/10/18 04:08:04;;;;;;;;;;;;;;;12.44;84.33;98930.06;5071162;28;19927;-57
2022/10/18 04:10:34;;;;;;;;;;;;;;;12.36;84.47;98928.84;5055147;28;19920;-57
2022/10/18 04:13:02;;;;;;;;;;;;;;;12.45;84.48;98931.69;5073337;28;19931;-58
2022/10/18 04:15:30;;;;;;;;;;;;;;;12.49;83.93;98921.81;5067585;28;19926;-57
2022/10/18 04:18:23;;;;;;;;;;;;;;;12.53;84.00;98922.84;5072284;28;19924;-57
2022/10/18 04:20:52;;;;;;;;;;;;;;;12.57;83.38;98926.59;5074404;28;19927;-57
2022/10/18 04:23:20;;;;;;;;;;;;;;;12.65;83.42;98925.06;5073484;28;19924;-58
2022/10/18 04:25:50;;;;;;;;;;;;;;;12.56;83.40;98923.03;5070960;28;19924;-57
2022/10/18 04:28:19;;;;;;;;;;;;;;;12.63;83.22;98922.66;5072775;28;19924;-57
2022/10/18 04:30:51;;;;;;;;;;;;;;;12.61;83.62;98921.31;5067231;28;19958;-58
2022/10/18 04:33:19;;;;;;;;;;;;;;;12.66;83.48;98926.69;5070287;28;20054;-58
2022/10/18 04:35:53;;;;;;;;;;;;;;;12.67;83.54;98928.28;5071567;28;20003;-58
2022/10/18 04:38:21;;;;;;;;;;;;;;;12.66;83.72;98924.75;5072602;28;19924;-58
2022/10/18 04:40:50;;;;;;;;;;;;;;;12.70;83.52;98928.50;5070474;28;19978;-58
2022/10/18 04:43:18;;;;;;;;;;;;;;;12.74;83.44;98923.28;5072579;28;19924;-57
2022/10/18 04:45:46;;;;;;;;;;;;;;;12.69;83.48;98929.63;5064136;28;19920;-57
2022/10/18 04:48:14;;;;;;;;;;;;;;;12.80;83.34;98924.81;5049609;28;19920;-58
2022/10/18 04:50:42;;;;;;;;;;;;;;;12.78;83.20;98918.81;5043875;28;19921;-57
2022/10/18 04:53:15;;;;;;;;;;;;;;;12.63;83.53;98916.41;5055025;28;19924;-58
2022/10/18 04:55:43;;;;;;;;;;;;;;;12.71;83.53;98913.75;5051907;28;19982;-58
2022/10/18 04:58:11;;;;;;;;;;;;;;;12.75;83.65;98913.97;5050323;28;19924;-57
2022/10/18 05:00:41;;;;;;;;;;;;;;;12.74;83.56;98915.91;5048999;28;19939;-57
2022/10/18 05:03:09;;;;;;;;;;;;;;;12.76;83.48;98910.13;5069145;28;20361;-58
2022/10/18 05:05:37;;;;;;;;;;;;;;;12.76;83.42;98910.13;5063753;28;19920;-57
2022/10/18 05:08:28;;;;;;;;;;;;;;;12.69;83.49;98915.19;5071090;28;20512;-57
2022/10/18 05:10:56;;;;;;;;;;;;;;;12.73;83.49;98913.47;5067273;28;20293;-58
2022/10/18 05:13:24;;;;;;;;;;;;;;;12.79;83.57;98909.56;5063401;28;19921;-57
2022/10/18 05:15:52;;;;;;;;;;;;;;;12.78;83.20;98906.03;5066588;28;19920;-57
2022/10/18 05:18:20;;;;;;;;;;;;;;;12.82;83.21;98906.22;5073540;28;20515;-57
2022/10/18 05:20:48;;;;;;;;;;;;;;;12.82;83.16;98898.84;5068270;28;19924;-58
2022/10/18 05:23:16;;;;;;;;;;;;;;;12.81;83.26;98901.88;5053172;28;19924;-57
2022/10/18 05:25:45;;;;;;;;;;;;;;;12.83;83.05;98896.91;5071072;28;19921;-58
2022/10/18 05:28:14;;;;;;;;;;;;;;;12.74;83.18;98890.56;5070765;28;20039;-57
2022/10/18 05:31:02;;;;;;;;;;;;;;;12.75;83.14;98898.44;5061257;28;19986;-58
2022/10/18 05:33:30;;;;;;;;;;;;;;;12.77;82.83;98892.66;5061120;28;19921;-56
2022/10/18 05:35:58;;;;;;;;;;;;;;;12.77;82.87;98890.75;5068303;28;20319;-57
2022/10/18 05:38:26;;;;;;;;;;;;;;;12.75;82.99;98895.69;5070450;28;19943;-57
2022/10/18 05:40:55;;;;;;;;;;;;;;;12.76;82.88;98894.59;5070442;28;19920;-57
2022/10/18 05:43:24;;;;;;;;;;;;;;;12.78;82.88;98899.72;5069143;28;19948;-57
2022/10/18 05:48:44;;;;;;;;;;;;;;;12.75;83.35;98903.06;5048693;28;19921;-57
2022/10/18 05:51:12;;;;;;;;;;;;;;;12.80;83.00;98906.50;5033760;28;20382;-57
2022/10/18 05:53:40;;;;;;;;;;;;;;;12.80;82.96;98908.44;5029898;28;19928;-57
2022/10/18 05:56:10;;;;;;;;;;;;;;;12.79;83.01;98910.34;5031595;28;20367;-57
2022/10/18 05:58:39;;;;;;;;;;;;;;;12.75;83.27;98908.53;5030794;28;19921;-57
2022/10/18 06:01:07;;;;;;;;;;;;;;;12.79;83.43;98910.34;5026567;28;20296;-57
2022/10/18 06:03:35;;;;;;;;;;;;;;;12.85;83.73;98909.16;5034199;28;19932;-57
2022/10/18 06:06:03;;;;;;;;;;;;;;;12.87;83.55;98906.13;5028586;28;19925;-57
2022/10/18 06:08:34;;;;;;;;;;;;;;;12.90;83.50;98910.97;5026609;28;20020;-57
2022/10/18 06:11:05;;;;;;;;;;;;;;;12.92;83.52;98913.38;5030914;28;20736;-57
2022/10/18 06:13:35;;;;;;;;;;;;;;;12.93;83.51;98909.53;5030946;28;19921;-57
2022/10/18 06:16:02;;;;;;;;;;;;;;;12.95;83.81;98910.88;5027223;28;19928;-57
2022/10/18 06:18:30;;;;;;;;;;;;;;;13.01;83.47;98914.31;5031971;28;19925;-57
2022/10/18 06:20:58;;;;;;;;;;;;;;;13.00;83.61;98908.06;5035929;28;20019;-57
2022/10/18 06:23:51;;;;;;;;;;;;;;;13.07;83.35;98919.34;5015281;28;19971;-57
2022/10/18 06:26:20;;;;;;;;;;;;;;;13.07;83.46;98924.81;5029022;28;19921;-57
2022/10/18 06:28:50;;;;;;;;;;;;;;;13.14;83.27;98926.34;5029934;28;19925;-57
2022/10/18 06:31:20;;;;;;;;;;;;;;;13.16;82.97;98927.66;5032987;28;19979;-57
2022/10/18 06:33:48;;;;;;;;;;;;;;;13.18;83.04;98935.53;5048165;28;19920;-57
2022/10/18 06:36:16;;;;;;;;;;;;;;;13.16;82.92;98935.84;5049486;28;20002;-58
2022/10/18 06:38:44;;;;;;;;;;;;;;;13.15;82.95;98933.41;5051358;28;19921;-58
2022/10/18 06:41:36;;;;;;;;;;;;;;;13.16;82.97;98933.13;5041881;28;20398;-58
2022/10/18 06:44:19;;;;;;;;;;;;;;;13.19;83.02;98926.22;5048443;28;20023;-58
2022/10/18 06:46:47;;;;;;;;;;;;;;;13.22;82.90;98931.13;5044983;28;19925;-58
2022/10/18 06:49:39;;;;;;;;;;;;;;;13.22;82.76;98929.19;5036668;28;19921;-58
2022/10/18 06:52:07;;;;;;;;;;;;;;;13.27;83.01;98937.28;5037179;28;19929;-58
2022/10/18 06:54:36;;;;;;;;;;;;;;;13.30;83.04;98933.13;5056068;28;20336;-57
2022/10/18 06:57:04;;;;;;;;;;;;;;;13.28;83.07;98932.63;5040384;28;19921;-58
2022/10/18 06:59:56;;;;;;;;;;;;;;;13.29;83.03;98935.06;5038349;28;19921;-59
2022/10/18 07:02:25;;;;;;;;;;;;;;;13.35;82.99;98930.28;5026771;28;19921;-58
2022/10/18 07:04:53;;;;;;;;;;;;;;;13.31;82.97;98926.56;5029140;28;19932;-58
2022/10/18 07:07:24;;;;;;;;;;;;;;;13.42;83.07;98922.50;5033330;28;19921;-58
2022/10/18 07:09:52;;;;;;;;;;;;;;;13.45;83.20;98921.91;5035654;28;19921;-58
2022/10/18 07:12:19;;;;;;;;;;;;;;;13.49;83.13;98922.91;5034122;28;19970;-58
2022/10/18 07:14:47;;;;;;;;;;;;;;;13.48;82.79;98921.31;5031786;28;19925;-58
2022/10/18 07:17:15;;;;;;;;;;;;;;;13.51;82.78;98926.13;5043534;28;19921;-58
2022/10/18 07:19:45;;;;;;;;;;;;;;;13.58;83.04;98931.16;5031793;28;19948;-58
2022/10/18 07:22:38;;;;;;;;;;;;;;;13.58;82.81;98923.81;5027824;28;19921;-58
2022/10/18 07:25:07;;;;;;;;;;;;;;;13.64;82.70;98927.25;5033240;28;19999;-58
2022/10/18 07:28:00;;;;;;;;;;;;;;;13.67;83.15;98923.06;5026172;28;19927;-58
2022/10/18 07:31:17;;;;;;;;;;;;;;;13.71;82.94;98926.81;5032836;28;19956;-58
2022/10/18 07:33:45;;;;;;;;;;;;;;;13.78;83.08;98927.19;5053391;28;20023;-58
2022/10/18 07:36:14;;;;;;;;;;;;;;;13.81;82.87;98929.31;5051896;28;20313;-58
2022/10/18 07:38:43;;;;;;;;;;;;;;;13.92;82.72;98929.91;5073151;28;19924;-58
2022/10/18 07:41:35;;;;;;;;;;;;;;;13.99;82.76;98933.00;5051912;28;19921;-58
2022/10/18 07:44:04;;;;;;;;;;;;;;;14.02;82.99;98935.94;5068228;28;19932;-58
2022/10/18 07:46:32;;;;;;;;;;;;;;;14.08;82.74;98940.16;5054105;28;19921;-58
2022/10/18 07:49:00;;;;;;;;;;;;;;;14.09;82.82;98939.03;5046575;28;19929;-58
2022/10/18 07:51:31;;;;;;;;;;;;;;;14.05;82.76;98940.75;5050420;28;19920;-58
2022/10/18 07:53:59;;;;;;;;;;;;;;;14.04;83.17;98938.34;5059722;28;20656;-58
2022/10/18 07:56:27;;;;;;;;;;;;;;;14.15;82.91;98946.00;5070685;28;19929;-58
2022/10/18 07:58:55;;;;;;;;;;;;;;;14.20;82.87;98934.13;5073183;28;20426;-58
2022/10/18 08:01:24;;;;;;;;;;;;;;;14.24;82.82;98940.59;5064555;28;20377;-58
2022/10/18 08:03:52;;;;;;;;;;;;;;;14.30;82.75;98930.34;5072013;28;19955;-58
2022/10/18 08:06:21;;;;;;;;;;;;;;;14.33;82.84;98933.28;5071910;28;19928;-58
2022/10/18 08:08:53;;;;;;;;;;;;;;;14.36;83.02;98931.84;5070882;28;19920;-58
2022/10/18 08:11:21;;;;;;;;;;;;;;;14.39;83.21;98928.50;5071608;28;20281;-58
2022/10/18 08:13:49;;;;;;;;;;;;;;;14.43;83.19;98934.94;5064854;28;19924;-58
2022/10/18 08:16:18;;;;;;;;;;;;;;;14.47;83.21;98932.41;5064557;28;19966;-58
2022/10/18 08:18:46;;;;;;;;;;;;;;;14.53;83.34;98931.19;5072461;28;20434;-58
2022/10/18 08:21:14;;;;;;;;;;;;;;;14.60;83.24;98939.78;5072022;28;20011;-58
2022/10/18 08:23:42;;;;;;;;;;;;;;;14.70;82.91;98936.78;5071358;28;19931;-57
2022/10/18 08:26:14;;;;;;;;;;;;;;;14.75;82.82;98950.28;5069417;28;19966;-58
2022/10/18 08:31:50;;;;;;;;;;;;;;;14.84;82.53;98961.28;5066801;28;19939;-58
2022/10/18 08:34:18;;;;;;;;;;;;;;;14.96;82.21;98958.78;5072531;28;19973;-58
2022/10/18 08:36:47;;;;;;;;;;;;;;;15.04;82.13;98966.22;5071006;28;20015;-58
2022/10/18 08:39:15;;;;;;;;;;;;;;;15.22;81.21;98958.88;5063816;28;19920;-58
2022/10/18 08:41:52;;;;;;;;;;;;;;;15.29;80.91;98961.19;5070837;28;19963;-58
2022/10/18 08:44:20;;;;;;;;;;;;;;;15.40;80.29;98963.31;5064732;28;20363;-58
2022/10/18 08:46:48;;;;;;;;;;;;;;;15.50;79.61;98961.41;5074666;28;19920;-58
2022/10/18 08:49:43;;;;;;;;;;;;;;;15.57;79.68;98959.81;5069672;28;19924;-58
2022/10/18 08:52:15;;;;;;;;;;;;;;;15.66;79.26;98955.22;5074458;28;19924;-58
2022/10/18 08:54:49;;;;;;;;;;;;;;;15.76;78.31;98950.53;5057267;28;19970;-58
2022/10/18 08:57:18;;;;;;;;;;;;;;;15.87;78.05;98951.84;5050695;28;19920;-58
2022/10/18 08:59:50;;;;;;;;;;;;;;;16.00;77.30;98950.88;5051639;28;20007;-58
2022/10/18 09:02:23;;;;;;;;;;;;;;;16.11;76.91;98954.94;5026701;28;19931;-58
2022/10/18 09:04:52;;;;;;;;;;;;;;;16.25;76.63;98949.28;5028847;28;19921;-58
2022/10/18 09:07:24;;;;;;;;;;;;;;;16.39;76.14;98960.06;5029980;28;20641;-58
2022/10/18 09:09:54;;;;;;;;;;;;;;;16.56;75.69;98949.06;5030097;28;20141;-58
2022/10/18 09:12:37;;;;;;;;;;;;;;;16.64;74.17;98945.53;5030597;28;20028;-58
2022/10/18 09:15:16;;;;;;;;;;;;;;;16.76;73.87;98931.16;5031227;28;19987;-58
2022/10/18 09:17:47;;;;;;;;;;;;;;;16.81;73.35;98932.91;5043127;28;20628;-58
2022/10/18 09:20:21;;;;;;;;;;;;;;;16.87;73.37;98934.34;5033514;28;20354;-58
2022/10/18 09:22:52;;;;;;;;;;;;;;;16.92;73.23;98945.16;5046925;28;20298;-58
2022/10/18 09:25:44;;;;;;;;;;;;;;;17.08;72.87;98948.16;5026238;28;19925;-58
2022/10/18 09:28:16;;;;;;;;;;;;;;;17.27;71.95;98952.13;5033788;28;19952;-58
2022/10/18 09:30:46;;;;;;;;;;;;;;;17.42;72.14;98948.03;5019936;28;19936;-58
2022/10/18 09:33:28;;;;;;;;;;;;;;;17.55;71.30;98940.69;5030825;28;19929;-58
2022/10/18 09:35:56;;;;;;;;;;;;;;;17.63;70.97;98948.09;5029343;28;19929;-58
2022/10/18 09:38:26;;;;;;;;;;;;;;;17.71;70.39;98952.72;5023534;28;19929;-58
2022/10/18 09:40:56;;;;;;;;;;;;;;;17.80;69.74;98942.50;5031657;28;19925;-58
2022/10/18 09:43:49;;;;;;;;;;;;;;;17.87;69.37;98952.97;5025548;28;19995;-59
2022/10/18 09:46:19;;;;;;;;;;;;;;;17.95;69.07;98946.59;5025274;28;19932;-58
2022/10/18 09:48:51;;;;;;;;;;;;;;;18.01;69.13;98953.50;5032024;28;19932;-58
2022/10/18 09:51:21;;;;;;;;;;;;;;;18.04;69.07;98952.81;5036002;28;19933;-58
2022/10/18 09:53:57;;;;;;;;;;;;;;;18.10;68.69;98964.44;5057986;28;19929;-58
2022/10/18 09:56:26;;;;;;;;;;;;;;;18.14;68.72;98962.63;5029169;28;19933;-58
2022/10/18 09:58:54;;;;;;;;;;;;;;;18.23;68.14;98960.63;5031002;28;19925;-59
2022/10/18 10:01:24;;;;;;;;;;;;;;;18.33;68.26;98957.47;5025299;28;19926;-58
2022/10/18 10:03:53;;;;;;;;;;;;;;;18.42;68.45;98962.06;5031227;28;20367;-58
2022/10/18 10:06:25;;;;;;;;;;;;;;;18.52;68.14;98951.44;5029864;28;20008;-58
2022/10/18 10:09:06;;;;;;;;;;;;;;;18.59;68.06;98956.41;5026967;28;19983;-58
2022/10/18 10:12:01;;;;;;;;;;;;;;;18.69;67.48;98961.50;5030742;28;19929;-58
2022/10/18 10:14:29;;;;;;;;;;;;;;;18.69;67.42;98958.75;5029956;28;19939;-58
2022/10/18 10:17:01;;;;;;;;;;;;;;;18.73;67.53;98956.13;5037867;28;19925;-58
2022/10/18 10:19:31;;;;;;;;;;;;;;;18.74;67.30;98950.28;5050461;28;19931;-58
2022/10/18 10:22:00;;;;;;;;;;;;;;;18.88;67.15;98947.22;5051354;28;19925;-58
2022/10/18 10:24:42;;;;;;;;;;;;;;;18.92;67.08;98952.88;5048944;28;20378;-58
2022/10/18 10:27:15;;;;;;;;;;;;;;;18.96;66.83;98953.78;5048359;28;19925;-58
2022/10/18 10:30:07;;;;;;;;;;;;;;;19.00;66.69;98965.72;5049326;28;19929;-58
2022/10/18 10:32:46;;;;;;;;;;;;;;;18.94;67.18;98962.38;5047349;28;19924;-58
2022/10/18 10:35:32;;;;;;;;;;;;;;;18.94;67.73;98964.34;5047665;28;20028;-58
2022/10/18 10:38:23;;;;;;;;;;;;;;;19.00;67.17;98965.72;5048437;28;19929;-58
2022/10/18 10:40:51;;;;;;;;;;;;;;;18.99;67.42;98964.13;5052589;28;19924;-58
2022/10/18 10:43:19;;;;;;;;;;;;;;;19.00;67.24;98965.72;5049967;28;19929;-58
2022/10/18 10:46:04;;;;;;;;;;;;;;;18.94;67.22;98962.38;5046301;28;19928;-58
2022/10/18 10:48:34;;;;;;;;;;;;;;;18.92;67.39;98963.88;5050570;28;19932;-59
2022/10/18 10:51:04;;;;;;;;;;;;;;;18.79;67.42;98952.81;5082833;28;19933;-58
2022/10/18 10:53:40;;;;;;;;;;;;;;;18.72;67.54;98949.81;5053208;28;19963;-58
2022/10/18 10:56:22;;;;;;;;;;;;;;;18.70;66.84;98957.63;5085592;28;19959;-58
2022/10/18 10:58:50;;;;;;;;;;;;;;;18.64;67.50;98958.13;5063373;28;20289;-58
2022/10/18 11:01:20;;;;;;;;;;;;;;;18.58;67.60;98952.03;5062768;28;20577;-58
2022/10/18 11:03:50;;;;;;;;;;;;;;;18.48;67.88;98961.53;5048711;28;19931;-58
2022/10/18 11:06:42;;;;;;;;;;;;;;;18.45;68.26;98955.91;5070335;28;19925;-58
2022/10/18 11:09:12;;;;;;;;;;;;;;;18.43;68.47;98958.16;5046911;28;19929;-58
2022/10/18 11:11:45;;;;;;;;;;;;;;;18.44;69.45;98959.78;5075572;28;20023;-58
2022/10/18 11:14:24;;;;;;;;;;;;;;;18.30;71.40;98960.06;5067124;28;19924;-57
2022/10/18 11:16:55;;;;;;;;;;;;;;;18.17;72.07;98961.97;5065066;28;19924;-58
2022/10/18 11:19:33;;;;;;;;;;;;;;;18.17;73.04;98956.47;5070365;28;19928;-57
2022/10/18 11:22:01;;;;;;;;;;;;;;;18.10;73.32;98949.88;5068531;28;19925;-57
2022/10/18 11:24:33;;;;;;;;;;;;;;;18.00;73.97;98946.41;5069738;28;20452;-58
2022/10/18 11:27:02;;;;;;;;;;;;;;;17.93;74.52;98953.56;5074475;28;20372;-58
2022/10/18 11:29:36;;;;;;;;;;;;;;;17.85;75.64;98951.69;5071926;28;19931;-57
2022/10/18 11:35:11;;;;;;;;;;;;;;;17.72;75.84;98948.84;5076508;28;19925;-58
2022/10/18 11:37:47;;;;;;;;;;;;;;;17.66;76.83;98949.34;5068295;28;20380;-57
2022/10/18 11:40:21;;;;;;;;;;;;;;;17.58;78.14;98952.94;5056448;28;20007;-57
2022/10/18 11:42:50;;;;;;;;;;;;;;;17.54;78.67;98950.06;5074059;28;19936;-58
2022/10/18 11:45:22;;;;;;;;;;;;;;;17.53;78.47;98960.25;5067887;28;19932;-57
2022/10/18 11:47:52;;;;;;;;;;;;;;;17.39;79.64;98948.69;5073922;28;19948;-57
2022/10/18 11:50:25;;;;;;;;;;;;;;;17.37;80.09;98941.94;5070049;28;20711;-59
2022/10/18 11:52:55;;;;;;;;;;;;;;;17.31;80.56;98938.56;5084917;28;19955;-57
2022/10/18 11:55:27;;;;;;;;;;;;;;;17.33;80.08;98944.53;5071720;28;19931;-58
2022/10/18 11:58:00;;;;;;;;;;;;;;;17.29;80.74;98944.34;5088175;28;20352;-57
2022/10/18 12:00:31;;;;;;;;;;;;;;;17.32;79.58;98940.16;5063327;28;19939;-58
2022/10/18 12:03:06;;;;;;;;;;;;;;;17.38;79.92;98935.28;5056868;28;20571;-57
2022/10/18 12:05:36;;;;;;;;;;;;;;;17.39;79.84;98936.91;5065455;28;19978;-58
2022/10/18 12:08:06;;;;;;;;;;;;;;;17.36;79.89;98926.56;5053068;28;19940;-57
2022/10/18 12:10:34;;;;;;;;;;;;;;;17.38;79.41;98938.03;5073200;28;19935;-58
2022/10/18 12:13:21;;;;;;;;;;;;;;;17.40;79.32;98942.03;5085064;28;19928;-58
2022/10/18 12:15:49;;;;;;;;;;;;;;;17.45;77.96;98935.56;5067210;28;20754;-58
2022/10/18 12:18:18;;;;;;;;;;;;;;;17.39;77.90;98940.44;5049498;28;20019;-58
2022/10/18 12:20:48;;;;;;;;;;;;;;;17.29;78.41;98936.13;5052970;28;19931;-57
2022/10/18 12:23:17;;;;;;;;;;;;;;;17.28;78.58;98930.97;5053992;28;19963;-58
2022/10/18 12:25:46;;;;;;;;;;;;;;;17.28;78.71;98926.28;5070224;28;19932;-58
2022/10/18 12:28:17;;;;;;;;;;;;;;;17.36;79.42;98921.06;5071919;28;20333;-57
2022/10/18 12:30:46;;;;;;;;;;;;;;;17.39;79.15;98923.16;5068545;28;19924;-57
2022/10/18 12:33:16;;;;;;;;;;;;;;;17.46;78.79;98937.16;5052553;28;19982;-57
2022/10/18 12:35:58;;;;;;;;;;;;;;;17.43;79.13;98930.41;5051561;28;19925;-58
2022/10/18 12:38:26;;;;;;;;;;;;;;;17.41;78.89;98931.88;5031145;28;19925;-57
2022/10/18 12:40:54;;;;;;;;;;;;;;;17.39;79.86;98928.66;5034390;28;19951;-58
2022/10/18 12:43:23;;;;;;;;;;;;;;;17.36;79.73;98921.06;5047917;28;19933;-58
2022/10/18 12:45:52;;;;;;;;;;;;;;;17.32;79.98;98920.94;5037228;28;19925;-58
2022/10/18 12:48:41;;;;;;;;;;;;;;;17.29;80.22;98932.56;5050834;28;19981;-58
2022/10/18 12:51:14;;;;;;;;;;;;;;;17.27;80.56;98923.88;5041519;28;19935;-58
2022/10/18 12:53:44;;;;;;;;;;;;;;;17.27;80.07;98924.69;5032437;28;19929;-58
2022/10/18 12:56:33;;;;;;;;;;;;;;;17.33;78.85;98925.28;5051467;28;20040;-58
2022/10/18 12:59:16;;;;;;;;;;;;;;;17.34;79.57;98920.59;5051002;28;20442;-58
2022/10/18 13:02:08;;;;;;;;;;;;;;;17.39;79.07;98925.91;5030712;28;19924;-58
2022/10/18 13:04:37;;;;;;;;;;;;;;;17.35;78.96;98920.25;5048985;28;19968;-58
2022/10/18 13:07:17;;;;;;;;;;;;;;;17.49;78.31;98925.53;5052084;28;20362;-58
2022/10/18 13:09:59;;;;;;;;;;;;;;;17.42;79.04;98922.50;5066333;28;19991;-58
2022/10/18 13:12:36;;;;;;;;;;;;;;;17.50;78.62;98932.63;5048741;28;20002;-58
2022/10/18 13:15:07;;;;;;;;;;;;;;;17.56;78.79;98925.81;5040060;28;19931;-57
2022/10/18 13:17:52;;;;;;;;;;;;;;;17.67;77.69;98917.97;5066143;28;20374;-58
2022/10/18 13:20:23;;;;;;;;;;;;;;;17.65;77.83;98918.31;5050481;28;20015;-58
2022/10/18 13:22:58;;;;;;;;;;;;;;;17.68;77.69;98923.13;5066501;28;19924;-58
2022/10/18 13:25:27;;;;;;;;;;;;;;;17.66;78.51;98919.91;5050336;28;19970;-58